ADDS METAR Data INFO
IDs: Format: Raw Decoded Include TAF

Data at: 2019 UTC 20 Jul 2018

KMLC 201953Z AUTO 24013KT 10SM CLR 41/18 A2984 RMK AO2 SLP092 T04110178
KMLC 201853Z AUTO 24010G17KT 10SM CLR 40/19 A2986 RMK AO2 SLP097 T04000189
KMLC 201753Z AUTO 22013KT 10SM CLR 39/19 A2988 RMK AO2 SLP104 T03890194 10389 20267 58005
KMLC 201653Z AUTO 23011KT 10SM CLR 37/20 A2989 RMK AO2 SLP107 T03670200
KMLC 201553Z AUTO 23012KT 10SM CLR 35/19 A2989 RMK AO2 SLP107 T03500194
KMLC 201453Z AUTO 22011KT 10SM CLR 33/20 A2989 RMK AO2 SLP110 T03280200 51010
KMLC 201353Z AUTO 20006G15KT 10SM CLR 30/20 A2989 RMK AO2 SLP109 T03000200
KMLC 201253Z AUTO 20004KT 10SM CLR 28/19 A2988 RMK AO2 SLP105 T02780194
KMLC 201153Z AUTO 21005KT 10SM CLR 27/19 A2986 RMK AO2 SLP099 T02720189 10311 20267 53004
KMLC 201053Z AUTO 20005KT 10SM CLR 28/18 A2984 RMK AO2 SLP093 T02830183
KMLC 200953Z AUTO 18004KT 10SM CLR 29/19 A2985 RMK AO2 SLP093 T02890189
KMLC 200853Z AUTO VRB03KT 10SM CLR 28/19 A2985 RMK AO2 SLP095 T02830194 51013
KMLC 200753Z AUTO 10003KT 10SM CLR 28/20 A2984 RMK AO2 SLP092 T02830200
KMLC 200653Z AUTO 15003KT 10SM CLR 31/19 A2985 RMK AO2 SLP094 T03110194
KMLC 200553Z AUTO VRB06KT 10SM CLR 31/20 A2981 RMK AO2 SLP082 T03060200 10378 20294 403940239 58001
KMLC 200453Z AUTO 17005KT 10SM CLR 31/21 A2981 RMK AO2 SLP082 T03110211
KMLC 200353Z AUTO 11004KT 10SM CLR 31/23 A2982 RMK AO2 SLP086 T03060228
KMLC 200253Z AUTO 09004KT 10SM CLR 30/23 A2981 RMK AO2 SLP083 T03000233 51011
KMLC 200153Z AUTO 13004KT 10SM CLR 29/24 A2981 RMK AO2 SLP082 T02940239
KMLC 200053Z AUTO 08003KT 10SM CLR 35/24 A2979 RMK AO2 SLP075 T03500239
KMLC 192353Z AUTO 13003KT 10SM CLR 38/21 A2978 RMK AO2 SLP072 T03780211 10394 20356 56018
KMLC 192253Z AUTO VRB03KT 10SM CLR 38/21 A2979 RMK AO2 SLP074 T03830211
KMLC 192153Z AUTO VRB03KT 10SM CLR 39/21 A2982 RMK AO2 SLP085 T03890206
KMLC 192053Z AUTO 32003KT 10SM CLR 39/21 A2983 RMK AO2 SLP090 T03890211 58006
KMLC 191953Z AUTO 00000KT 10SM CLR 38/22 A2984 RMK AO2 SLP092 T03830222
KMLC 191853Z AUTO 11003KT 10SM CLR 36/22 A2985 RMK AO2 SLP096 T03610222
KMLC 191753Z AUTO VRB05KT 10SM CLR 36/23 A2985 RMK AO2 SLP097 T03560228 10356 20244 56013
KMLC 191653Z AUTO 19007KT 10SM CLR 34/22 A2986 RMK AO2 SLP100 T03440222
KMLC 191553Z AUTO 22011KT 10SM CLR 33/22 A2987 RMK AO2 SLP103 T03280222
KMLC 191453Z AUTO 20006KT 10SM CLR 30/23 A2989 RMK AO2 SLP110 T03000228 50000
KMLC 191353Z AUTO VRB04KT 10SM CLR 28/23 A2990 RMK AO2 SLP115 T02830228
KMLC 191253Z AUTO 00000KT 10SM CLR 26/23 A2990 RMK AO2 SLP112 T02610228
KMLC 191153Z AUTO 00000KT 10SM CLR 24/23 A2989 RMK AO2 SLP110 T02440228 10261 20239 51006
KMLC 191053Z AUTO 00000KT 10SM FEW110 24/23 A2989 RMK AO2 SLP109 T02390228
KMLC 190953Z AUTO 00000KT 10SM FEW080 BKN110 24/23 A2988 RMK AO2 SLP107 T02440228
KMLC 190853Z AUTO VRB03KT 10SM CLR 25/23 A2987 RMK AO2 SLP104 T02500233 58006